createdAt,value
2023-03-01T00:03:09.572Z,33.70
2023-03-01T00:08:14.217Z,35.78
2023-03-01T00:13:21.504Z,36.80
2023-03-01T00:18:26.467Z,35.17
2023-03-01T00:23:31.835Z,34.47
2023-03-01T00:28:39.159Z,33.15
2023-03-01T00:33:43.941Z,36.53
2023-03-01T00:38:49.372Z,37.03
2023-03-01T00:43:57.016Z,43.35
2023-03-01T00:49:03.358Z,36.33
2023-03-01T00:54:08.124Z,39.33
2023-03-01T00:59:15.416Z,39.17
2023-03-01T01:04:20.093Z,44.47
2023-03-01T01:09:24.729Z,40.17
2023-03-01T01:14:32.009Z,38.15
2023-03-01T01:19:36.727Z,39.25
2023-03-01T01:24:41.586Z,42.80
2023-03-01T01:29:48.842Z,41.50
2023-03-01T01:34:53.542Z,42.15
2023-03-01T01:39:58.190Z,39.83
2023-03-01T01:45:17.796Z,38.70
2023-03-01T01:50:25.544Z,42.17
2023-03-01T01:55:31.456Z,39.75
2023-03-01T02:00:36.117Z,37.33
2023-03-01T02:05:51.576Z,37.85
2023-03-01T02:11:00.864Z,38.05
2023-03-01T02:16:07.476Z,36.60
2023-03-01T02:21:30.470Z,40.05
2023-03-01T02:26:40.378Z,38.90
2023-03-01T02:31:47.871Z,41.45
2023-03-01T02:36:54.422Z,44.33
2023-03-01T02:42:00.171Z,42.40
2023-03-01T02:47:07.886Z,45.72
2023-03-01T02:52:21.492Z,53.20
2023-03-01T02:57:28.529Z,36.95
2023-03-01T03:02:39.792Z,41.50
2023-03-01T03:07:45.856Z,44.15
2023-03-01T03:12:52.983Z,42.00
2023-03-01T03:18:00.700Z,39.70
2023-03-01T03:23:05.361Z,43.10
2023-03-01T03:28:13.013Z,41.08
2023-03-01T03:33:20.326Z,39.25
2023-03-01T03:38:27.207Z,39.92
2023-03-01T03:43:32.330Z,38.95
2023-03-01T03:48:40.604Z,41.67
2023-03-01T03:53:45.870Z,42.35
2023-03-01T03:58:50.537Z,41.15
2023-03-01T04:04:05.387Z,40.50
2023-03-01T04:09:10.988Z,45.78
2023-03-01T04:14:18.548Z,50.13
2023-03-01T04:19:25.945Z,53.30
2023-03-01T04:24:30.733Z,50.25
2023-03-01T04:29:35.337Z,42.80
2023-03-01T04:34:42.607Z,45.58
2023-03-01T04:39:48.543Z,49.40
2023-03-01T04:44:53.359Z,48.38
2023-03-01T04:50:00.768Z,40.65
2023-03-01T04:55:05.485Z,42.35
2023-03-01T05:00:21.180Z,41.80
2023-03-01T05:05:29.509Z,33.28
2023-03-01T05:10:36.425Z,36.97
2023-03-01T05:15:41.137Z,39.83
2023-03-01T05:20:48.705Z,47.15
2023-03-01T05:25:53.429Z,74.43
2023-03-01T05:30:58.191Z,85.10
2023-03-01T05:36:06.606Z,55.10
2023-03-01T05:41:20.870Z,45.05
2023-03-01T05:46:25.759Z,41.42
2023-03-01T05:51:33.643Z,39.85
2023-03-01T05:56:38.732Z,37.25
2023-03-01T06:01:43.681Z,36.95
2023-03-01T06:06:50.941Z,33.53
2023-03-01T06:11:55.709Z,38.58
2023-03-01T06:17:00.483Z,34.38
2023-03-01T06:22:08.185Z,44.20
2023-03-01T06:27:13.065Z,39.20
2023-03-01T06:32:18.971Z,36.45
2023-03-01T06:37:26.296Z,42.80
2023-03-01T06:42:30.967Z,42.55
2023-03-01T06:47:35.603Z,46.90
2023-03-01T06:52:42.945Z,44.90
2023-03-01T06:57:47.709Z,58.28
2023-03-01T07:02:52.599Z,39.85
2023-03-01T07:08:00.205Z,43.88
2023-03-01T07:13:04.918Z,37.33
2023-03-01T07:18:09.618Z,45.67
2023-03-01T07:23:16.977Z,43.05
2023-03-01T07:28:21.846Z,53.97
2023-03-01T07:33:26.525Z,43.53
2023-03-01T07:38:34.217Z,38.95
2023-03-01T07:43:39.030Z,36.35
2023-03-01T07:48:43.818Z,33.53
2023-03-01T07:53:52.365Z,42.20
2023-03-01T07:58:57.169Z,40.60
2023-03-01T08:04:03.016Z,37.60
2023-03-01T08:09:10.619Z,46.78
2023-03-01T08:14:15.434Z,43.88
2023-03-01T08:19:20.705Z,42.50
2023-03-01T08:24:28.163Z,40.60
2023-03-01T08:29:34.534Z,39.65
2023-03-01T08:34:40.483Z,36.28
2023-03-01T08:39:49.101Z,35.58
2023-03-01T08:44:53.879Z,33.97
2023-03-01T08:49:58.674Z,33.88
2023-03-01T08:55:06.290Z,37.15
2023-03-01T09:00:13.169Z,31.58
2023-03-01T09:05:20.237Z,37.60
2023-03-01T09:10:27.663Z,36.63
2023-03-01T09:15:32.699Z,34.13
2023-03-01T09:20:37.410Z,32.85
2023-03-01T09:25:44.861Z,29.02
2023-03-01T09:30:49.574Z,46.08
2023-03-01T09:35:54.349Z,49.97
2023-03-01T09:41:02.040Z,150.93
2023-03-01T09:46:08.799Z,52.22
2023-03-01T09:51:20.740Z,25.25
2023-03-01T09:56:32.246Z,29.80
2023-03-01T10:01:39.601Z,29.70
2023-03-01T10:06:48.388Z,31.23
2023-03-01T10:11:58.117Z,90.53
2023-03-01T10:17:05.757Z,39.55
2023-03-01T10:22:15.481Z,36.20
2023-03-01T10:27:26.361Z,46.30
2023-03-01T10:32:31.393Z,42.88
2023-03-01T10:37:36.070Z,47.60
2023-03-01T10:42:44.242Z,32.10
2023-03-01T10:47:49.136Z,26.55
2023-03-01T10:53:02.765Z,26.77
2023-03-01T10:58:20.405Z,27.98
2023-03-01T11:03:26.860Z,34.85
2023-03-01T11:08:35.942Z,33.00
2023-03-01T11:13:50.722Z,48.08
2023-03-01T11:19:00.585Z,22.50
2023-03-01T11:24:06.029Z,18.52
2023-03-01T11:29:16.518Z,18.58
2023-03-01T11:34:23.915Z,21.90
2023-03-01T11:39:32.177Z,19.02
2023-03-01T11:44:41.104Z,39.03
2023-03-01T11:50:03.280Z,27.88
2023-03-01T11:55:21.817Z,19.73
2023-03-01T12:00:38.247Z,19.45
2023-03-01T12:05:52.811Z,60.55
2023-03-01T12:11:01.148Z,54.65
2023-03-01T12:16:23.049Z,14.27
2023-03-01T12:21:43.553Z,12.05
2023-03-01T12:26:57.302Z,15.43
2023-03-01T12:32:13.585Z,18.50
2023-03-01T12:37:33.568Z,16.52
2023-03-01T12:42:48.733Z,15.70
2023-03-01T12:48:02.737Z,16.02
2023-03-01T12:53:07.560Z,13.20
2023-03-01T12:58:22.418Z,16.45
2023-03-01T13:03:34.399Z,16.52
2023-03-01T13:09:01.586Z,14.50
2023-03-01T13:14:21.284Z,16.02
2023-03-01T13:19:30.375Z,15.33
2023-03-01T13:24:39.950Z,17.98
2023-03-01T13:29:48.639Z,15.00
2023-03-01T13:34:59.853Z,15.57
2023-03-01T13:40:08.381Z,14.63
2023-03-01T13:45:36.810Z,13.38
2023-03-01T13:50:49.202Z,12.90
2023-03-01T13:55:57.045Z,26.85
2023-03-01T14:01:03.830Z,11.07
2023-03-01T14:06:15.182Z,18.50
2023-03-01T14:11:34.818Z,22.77
2023-03-01T14:16:44.820Z,21.70
2023-03-01T14:22:04.092Z,34.72
2023-03-01T14:27:13.623Z,20.67
2023-03-01T14:32:23.070Z,16.05
2023-03-01T14:37:32.467Z,14.07
2023-03-01T14:42:38.704Z,13.67
2023-03-01T14:47:44.496Z,13.07
2023-03-01T14:52:54.040Z,10.98
2023-03-01T14:58:03.436Z,10.90
2023-03-01T15:03:14.563Z,15.43
2023-03-01T15:08:24.601Z,22.40
2023-03-01T15:13:30.368Z,26.05
2023-03-01T15:18:35.305Z,24.75
2023-03-01T15:23:44.131Z,25.02
2023-03-01T15:28:53.615Z,23.42
2023-03-01T15:34:11.647Z,25.03
2023-03-01T15:39:38.573Z,23.50
2023-03-01T15:44:46.347Z,18.10
2023-03-01T15:49:55.255Z,17.50
2023-03-01T15:55:05.237Z,18.23
2023-03-01T16:00:14.632Z,19.27
2023-03-01T16:05:22.395Z,19.67
2023-03-01T16:10:29.752Z,24.17
2023-03-01T16:15:35.678Z,24.60
2023-03-01T16:20:40.538Z,21.73
2023-03-01T16:25:48.011Z,21.23
2023-03-01T16:30:52.802Z,23.25
2023-03-01T16:35:57.913Z,25.33
2023-03-01T16:41:05.607Z,26.15
2023-03-01T16:46:14.167Z,27.92
2023-03-01T16:51:19.245Z,30.08
2023-03-01T16:56:26.701Z,25.70
2023-03-01T17:01:38.613Z,28.17
2023-03-01T17:06:43.666Z,30.73
2023-03-01T17:11:51.181Z,30.27
2023-03-01T17:16:56.232Z,34.17
2023-03-01T17:22:01.397Z,38.40
2023-03-01T17:27:08.797Z,35.25
2023-03-01T17:32:13.770Z,47.25
2023-03-01T17:37:18.908Z,109.47
2023-03-01T17:42:26.310Z,101.38
2023-03-01T17:47:31.030Z,174.82
2023-03-01T17:52:35.748Z,84.20
2023-03-01T17:57:44.693Z,87.05
2023-03-01T18:02:49.610Z,102.70
2023-03-01T18:07:54.388Z,61.25
2023-03-01T18:13:01.687Z,49.55
2023-03-01T18:18:06.706Z,49.08
2023-03-01T18:23:11.509Z,84.80
2023-03-01T18:28:22.279Z,97.07
2023-03-01T18:33:29.534Z,101.88
2023-03-01T18:38:34.412Z,72.70
2023-03-01T18:43:42.547Z,91.72
2023-03-01T18:48:50.238Z,42.00
2023-03-01T18:53:55.203Z,63.47
2023-03-01T18:59:04.296Z,120.28
2023-03-01T19:04:11.139Z,118.13
2023-03-01T19:09:16.267Z,76.18
2023-03-01T19:14:23.743Z,30.65
2023-03-01T19:19:28.575Z,35.83
2023-03-01T19:24:33.669Z,34.28
2023-03-01T19:29:41.045Z,41.65
2023-03-01T19:34:46.930Z,45.40
2023-03-01T19:39:51.675Z,37.15
2023-03-01T19:44:59.983Z,31.45
2023-03-01T19:50:04.939Z,31.13
2023-03-01T19:55:10.390Z,24.90
2023-03-01T20:00:18.652Z,19.25
2023-03-01T20:05:23.411Z,18.92
2023-03-01T20:10:29.790Z,19.25
2023-03-01T20:15:37.699Z,27.55
2023-03-01T20:20:42.663Z,22.85
2023-03-01T20:25:48.740Z,27.75
2023-03-01T20:30:56.628Z,30.27
2023-03-01T20:36:01.570Z,23.52
2023-03-01T20:41:07.221Z,22.85
2023-03-01T20:46:17.937Z,20.95
2023-03-01T20:51:23.227Z,19.88
2023-03-01T20:56:28.611Z,27.42
2023-03-01T21:01:36.093Z,20.98
2023-03-01T21:06:43.125Z,20.02
2023-03-01T21:11:47.922Z,19.65
2023-03-01T21:16:56.222Z,24.92
2023-03-01T21:22:03.951Z,22.90
2023-03-01T21:27:09.881Z,21.52
2023-03-01T21:32:17.538Z,23.38
2023-03-01T21:37:22.690Z,22.77
2023-03-01T21:42:27.386Z,33.60
2023-03-01T21:47:36.411Z,45.65
2023-03-01T21:52:41.174Z,55.58
2023-03-01T21:57:46.361Z,69.53
2023-03-01T22:02:58.581Z,133.05
2023-03-01T22:08:03.637Z,131.93
2023-03-01T22:13:10.371Z,63.28
2023-03-01T22:18:18.054Z,40.55
2023-03-01T22:23:22.847Z,40.90
2023-03-01T22:28:27.946Z,34.70
2023-03-01T22:33:35.322Z,32.88
2023-03-01T22:38:40.105Z,23.45
2023-03-01T22:43:44.790Z,21.70
2023-03-01T22:48:52.189Z,24.92
2023-03-01T22:53:57.152Z,24.85
2023-03-01T22:59:02.784Z,24.85
2023-03-01T23:04:10.207Z,27.63
2023-03-01T23:09:14.863Z,25.58
2023-03-01T23:14:19.704Z,46.85
2023-03-01T23:19:27.041Z,30.63
2023-03-01T23:24:34.188Z,20.63
2023-03-01T23:29:38.946Z,20.33
2023-03-01T23:34:46.444Z,19.98
2023-03-01T23:39:51.433Z,28.05
2023-03-01T23:44:56.116Z,25.27
2023-03-01T23:50:03.477Z,22.60
2023-03-01T23:55:10.232Z,22.48
